sensor_id;sensor_type;location;lat;lon;timestamp;pressure;altitude;pressure_sealevel;temperature;humidity
46366;BME280;72328;49.570;8.722;2024-02-21T00:00:33;100653.75;;;13.54;53.79
46366;BME280;72328;49.570;8.722;2024-02-21T00:04:34;100650.19;;;13.43;54.06
46366;BME280;72328;49.570;8.722;2024-02-21T00:08:35;100647.16;;;13.36;53.81
46366;BME280;72328;49.570;8.722;2024-02-21T00:12:36;100646.34;;;13.36;54.10
46366;BME280;72328;49.570;8.722;2024-02-21T00:16:36;100646.88;;;13.41;54.06
46366;BME280;72328;49.570;8.722;2024-02-21T00:20:37;100630.41;;;13.42;53.81
46366;BME280;72328;49.570;8.722;2024-02-21T00:24:37;100636.94;;;13.47;53.93
46366;BME280;72328;49.570;8.722;2024-02-21T00:28:42;100628.91;;;13.52;53.63
46366;BME280;72328;49.570;8.722;2024-02-21T00:32:42;100627.88;;;13.54;53.87
46366;BME280;72328;49.570;8.722;2024-02-21T00:36:43;100622.47;;;13.57;53.83
46366;BME280;72328;49.570;8.722;2024-02-21T00:40:44;100612.97;;;13.58;53.60
46366;BME280;72328;49.570;8.722;2024-02-21T00:44:44;100609.53;;;13.57;53.58
46366;BME280;72328;49.570;8.722;2024-02-21T00:48:45;100612.22;;;13.56;53.55
46366;BME280;72328;49.570;8.722;2024-02-21T00:52:46;100595.88;;;13.55;53.63
46366;BME280;72328;49.570;8.722;2024-02-21T00:56:46;100584.59;;;13.56;53.73
46366;BME280;72328;49.570;8.722;2024-02-21T01:00:47;100583.56;;;13.59;54.06
46366;BME280;72328;49.570;8.722;2024-02-21T01:04:48;100573.41;;;13.56;53.77
46366;BME280;72328;49.570;8.722;2024-02-21T01:08:49;100575.19;;;13.55;53.54
46366;BME280;72328;49.570;8.722;2024-02-21T01:12:49;100572.59;;;13.55;53.56
46366;BME280;72328;49.570;8.722;2024-02-21T01:16:50;100551.28;;;13.52;53.42
46366;BME280;72328;49.570;8.722;2024-02-21T01:20:51;100547.31;;;13.46;53.64
46366;BME280;72328;49.570;8.722;2024-02-21T01:24:51;100542.56;;;13.40;53.81
46366;BME280;72328;49.570;8.722;2024-02-21T01:28:52;100548.84;;;13.36;53.69
46366;BME280;72328;49.570;8.722;2024-02-21T01:32:53;100545.00;;;13.29;54.07
46366;BME280;72328;49.570;8.722;2024-02-21T01:36:53;100537.56;;;13.25;53.98
46366;BME280;72328;49.570;8.722;2024-02-21T01:40:54;100524.72;;;13.23;53.94
46366;BME280;72328;49.570;8.722;2024-02-21T01:44:55;100530.63;;;13.25;53.89
46366;BME280;72328;49.570;8.722;2024-02-21T01:48:56;100542.00;;;13.23;54.13
46366;BME280;72328;49.570;8.722;2024-02-21T01:52:57;100533.13;;;13.27;53.84
46366;BME280;72328;49.570;8.722;2024-02-21T01:57:01;100512.09;;;13.19;54.06
46366;BME280;72328;49.570;8.722;2024-02-21T02:01:02;100522.06;;;13.25;53.68
46366;BME280;72328;49.570;8.722;2024-02-21T02:05:04;100516.03;;;13.24;54.00
46366;BME280;72328;49.570;8.722;2024-02-21T02:09:06;100513.84;;;13.18;53.88
46366;BME280;72328;49.570;8.722;2024-02-21T02:13:08;100515.06;;;13.13;54.07
46366;BME280;72328;49.570;8.722;2024-02-21T02:17:09;100522.03;;;13.12;54.01
46366;BME280;72328;49.570;8.722;2024-02-21T02:21:22;100509.19;;;13.11;54.09
46366;BME280;72328;49.570;8.722;2024-02-21T02:25:23;100499.78;;;13.10;53.94
46366;BME280;72328;49.570;8.722;2024-02-21T02:29:24;100484.13;;;13.11;54.24
46366;BME280;72328;49.570;8.722;2024-02-21T02:33:24;100491.81;;;13.13;54.17
46366;BME280;72328;49.570;8.722;2024-02-21T02:37:25;100487.25;;;13.16;54.03
46366;BME280;72328;49.570;8.722;2024-02-21T02:41:26;100479.31;;;13.19;53.94
46366;BME280;72328;49.570;8.722;2024-02-21T02:45:26;100475.88;;;13.19;53.99
46366;BME280;72328;49.570;8.722;2024-02-21T02:49:27;100466.47;;;13.18;53.97
46366;BME280;72328;49.570;8.722;2024-02-21T02:53:29;100458.28;;;13.11;54.21
46366;BME280;72328;49.570;8.722;2024-02-21T02:57:30;100460.06;;;13.11;54.27
46366;BME280;72328;49.570;8.722;2024-02-21T03:01:33;100455.81;;;13.10;54.03
46366;BME280;72328;49.570;8.722;2024-02-21T03:05:34;100454.16;;;13.09;54.02
46366;BME280;72328;49.570;8.722;2024-02-21T03:09:35;100451.06;;;13.04;54.07
46366;BME280;72328;49.570;8.722;2024-02-21T03:13:35;100453.53;;;13.05;54.13
46366;BME280;72328;49.570;8.722;2024-02-21T03:17:36;100438.53;;;13.10;54.07
46366;BME280;72328;49.570;8.722;2024-02-21T03:21:37;100431.94;;;13.06;53.92
46366;BME280;72328;49.570;8.722;2024-02-21T03:25:37;100433.19;;;13.13;53.87
46366;BME280;72328;49.570;8.722;2024-02-21T03:29:38;100430.16;;;13.07;53.95
46366;BME280;72328;49.570;8.722;2024-02-21T03:33:42;100422.09;;;12.99;54.14
46366;BME280;72328;49.570;8.722;2024-02-21T03:37:45;100408.63;;;12.94;54.13
46366;BME280;72328;49.570;8.722;2024-02-21T03:41:46;100411.94;;;12.96;54.38
46366;BME280;72328;49.570;8.722;2024-02-21T03:45:47;100402.31;;;12.98;54.04
46366;BME280;72328;49.570;8.722;2024-02-21T03:49:47;100410.72;;;13.01;54.02
46366;BME280;72328;49.570;8.722;2024-02-21T03:53:48;100413.09;;;13.04;53.90
46366;BME280;72328;49.570;8.722;2024-02-21T03:57:52;100413.00;;;13.06;54.18
46366;BME280;72328;49.570;8.722;2024-02-21T04:01:53;100418.47;;;13.01;54.22
46366;BME280;72328;49.570;8.722;2024-02-21T04:05:54;100421.16;;;13.00;54.03
46366;BME280;72328;49.570;8.722;2024-02-21T04:09:54;100425.22;;;13.04;54.25
46366;BME280;72328;49.570;8.722;2024-02-21T04:13:55;100422.41;;;13.07;54.39
46366;BME280;72328;49.570;8.722;2024-02-21T04:17:56;100432.75;;;13.07;54.21
46366;BME280;72328;49.570;8.722;2024-02-21T04:21:56;100426.03;;;13.04;54.22
46366;BME280;72328;49.570;8.722;2024-02-21T04:25:57;100416.44;;;13.06;54.08
46366;BME280;72328;49.570;8.722;2024-02-21T04:29:57;100415.59;;;13.06;54.26
46366;BME280;72328;49.570;8.722;2024-02-21T04:34:01;100400.59;;;13.11;54.26
46366;BME280;72328;49.570;8.722;2024-02-21T04:38:03;100387.56;;;13.12;54.06
46366;BME280;72328;49.570;8.722;2024-02-21T04:42:04;100389.22;;;13.13;54.22
46366;BME280;72328;49.570;8.722;2024-02-21T04:46:05;100375.78;;;13.08;53.89
46366;BME280;72328;49.570;8.722;2024-02-21T04:50:06;100369.16;;;13.04;54.19
46366;BME280;72328;49.570;8.722;2024-02-21T04:54:06;100358.38;;;12.98;54.50
46366;BME280;72328;49.570;8.722;2024-02-21T04:58:07;100362.50;;;13.00;54.07
46366;BME280;72328;49.570;8.722;2024-02-21T05:02:08;100357.56;;;12.97;54.54
46366;BME280;72328;49.570;8.722;2024-02-21T05:06:09;100345.94;;;12.90;54.23
46366;BME280;72328;49.570;8.722;2024-02-21T05:10:10;100333.34;;;12.86;53.83
46366;BME280;72328;49.570;8.722;2024-02-21T05:14:10;100334.59;;;12.80;54.30
46366;BME280;72328;49.570;8.722;2024-02-21T05:18:11;100329.59;;;12.77;54.04
46366;BME280;72328;49.570;8.722;2024-02-21T05:22:12;100328.25;;;12.72;54.39
46366;BME280;72328;49.570;8.722;2024-02-21T05:26:20;100337.69;;;12.73;54.19
46366;BME280;72328;49.570;8.722;2024-02-21T05:30:21;100332.38;;;12.74;54.50
46366;BME280;72328;49.570;8.722;2024-02-21T05:34:21;100314.63;;;12.70;54.10
46366;BME280;72328;49.570;8.722;2024-02-21T05:38:22;100321.94;;;12.76;54.33
46366;BME280;72328;49.570;8.722;2024-02-21T05:42:22;100310.91;;;12.74;53.99
46366;BME280;72328;49.570;8.722;2024-02-21T05:46:23;100326.59;;;12.71;54.09
46366;BME280;72328;49.570;8.722;2024-02-21T05:50:25;100330.22;;;12.68;54.11
46366;BME280;72328;49.570;8.722;2024-02-21T05:54:27;100328.56;;;12.67;54.13
46366;BME280;72328;49.570;8.722;2024-02-21T05:58:27;100328.88;;;12.63;54.00
46366;BME280;72328;49.570;8.722;2024-02-21T06:02:31;100307.78;;;12.56;54.01
46366;BME280;72328;49.570;8.722;2024-02-21T06:06:32;100306.94;;;12.56;53.97
46366;BME280;72328;49.570;8.722;2024-02-21T06:10:32;100295.38;;;12.49;54.26
46366;BME280;72328;49.570;8.722;2024-02-21T06:14:35;100281.84;;;12.45;54.00
46366;BME280;72328;49.570;8.722;2024-02-21T06:18:36;100287.84;;;12.46;53.88
46366;BME280;72328;49.570;8.722;2024-02-21T06:22:41;100288.88;;;12.43;54.03
46366;BME280;72328;49.570;8.722;2024-02-21T06:26:41;100298.34;;;12.43;53.92
46366;BME280;72328;49.570;8.722;2024-02-21T06:30:42;100297.66;;;12.41;53.97
46366;BME280;72328;49.570;8.722;2024-02-21T06:34:43;100301.25;;;12.38;54.03
46366;BME280;72328;49.570;8.722;2024-02-21T06:38:44;100295.16;;;12.39;53.79
46366;BME280;72328;49.570;8.722;2024-02-21T06:42:44;100287.31;;;12.41;54.08
46366;BME280;72328;49.570;8.722;2024-02-21T06:46:45;100293.50;;;12.38;54.29
46366;BME280;72328;49.570;8.722;2024-02-21T06:50:46;100291.94;;;12.36;54.19
46366;BME280;72328;49.570;8.722;2024-02-21T06:54:47;100282.75;;;12.32;54.52
46366;BME280;72328;49.570;8.722;2024-02-21T06:58:48;100277.75;;;12.29;54.36
46366;BME280;72328;49.570;8.722;2024-02-21T07:02:49;100294.72;;;12.33;54.60
46366;BME280;72328;49.570;8.722;2024-02-21T07:06:50;100288.75;;;12.32;54.93
46366;BME280;72328;49.570;8.722;2024-02-21T07:10:51;100289.56;;;12.33;54.64
46366;BME280;72328;49.570;8.722;2024-02-21T07:14:51;100287.84;;;12.46;55.53
46366;BME280;72328;49.570;8.722;2024-02-21T07:18:52;100284.72;;;12.53;55.70
46366;BME280;72328;49.570;8.722;2024-02-21T07:22:53;100286.50;;;12.65;55.96
46366;BME280;72328;49.570;8.722;2024-02-21T07:26:53;100265.09;;;12.76;56.18
46366;BME280;72328;49.570;8.722;2024-02-21T07:30:54;100256.66;;;12.86;56.59
46366;BME280;72328;49.570;8.722;2024-02-21T07:34:55;100257.69;;;12.96;56.19
46366;BME280;72328;49.570;8.722;2024-02-21T07:38:55;100260.06;;;12.99;56.35
46366;BME280;72328;49.570;8.722;2024-02-21T07:42:56;100258.81;;;13.05;56.39
46366;BME280;72328;49.570;8.722;2024-02-21T07:46:57;100266.56;;;13.17;56.51
46366;BME280;72328;49.570;8.722;2024-02-21T07:50:57;100272.13;;;13.24;56.06
46366;BME280;72328;49.570;8.722;2024-02-21T07:54:58;100272.00;;;13.38;56.58
46366;BME280;72328;49.570;8.722;2024-02-21T07:58:59;100265.75;;;13.53;56.53
46366;BME280;72328;49.570;8.722;2024-02-21T08:03:00;100256.06;;;13.67;56.62
46366;BME280;72328;49.570;8.722;2024-02-21T08:07:00;100258.50;;;13.81;56.85
46366;BME280;72328;49.570;8.722;2024-02-21T08:11:03;100267.25;;;13.91;57.17
46366;BME280;72328;49.570;8.722;2024-02-21T08:15:04;100255.50;;;13.98;57.14
46366;BME280;72328;49.570;8.722;2024-02-21T08:19:04;100252.56;;;14.03;56.70
46366;BME280;72328;49.570;8.722;2024-02-21T08:23:05;100251.50;;;13.94;56.47
46366;BME280;72328;49.570;8.722;2024-02-21T08:27:06;100243.81;;;13.93;56.94
46366;BME280;72328;49.570;8.722;2024-02-21T08:31:06;100235.50;;;14.00;56.42
46366;BME280;72328;49.570;8.722;2024-02-21T08:35:07;100227.72;;;14.00;55.95
46366;BME280;72328;49.570;8.722;2024-02-21T08:39:08;100222.19;;;13.94;56.01
46366;BME280;72328;49.570;8.722;2024-02-21T08:43:10;100203.13;;;13.95;55.88
46366;BME280;72328;49.570;8.722;2024-02-21T08:47:10;100205.63;;;13.96;55.68
46366;BME280;72328;49.570;8.722;2024-02-21T08:51:11;100214.19;;;13.97;56.09
46366;BME280;72328;49.570;8.722;2024-02-21T08:55:12;100210.56;;;13.99;56.05
46366;BME280;72328;49.570;8.722;2024-02-21T08:59:13;100204.69;;;13.97;56.30
46366;BME280;72328;49.570;8.722;2024-02-21T09:03:15;100209.41;;;14.03;56.50
46366;BME280;72328;49.570;8.722;2024-02-21T09:07:16;100206.63;;;14.17;56.55
46366;BME280;72328;49.570;8.722;2024-02-21T09:11:16;100216.19;;;14.28;57.17
46366;BME280;72328;49.570;8.722;2024-02-21T09:15:17;100191.63;;;14.44;57.46
46366;BME280;72328;49.570;8.722;2024-02-21T09:19:17;100183.16;;;14.86;58.59
46366;BME280;72328;49.570;8.722;2024-02-21T09:23:18;100178.13;;;15.38;61.57
46366;BME280;72328;49.570;8.722;2024-02-21T09:27:20;100170.22;;;16.44;63.98
46366;BME280;72328;49.570;8.722;2024-02-21T09:31:20;100173.16;;;17.48;63.92
46366;BME280;72328;49.570;8.722;2024-02-21T09:35:21;100180.84;;;17.88;63.09
46366;BME280;72328;49.570;8.722;2024-02-21T09:39:23;100175.50;;;17.99;62.85
46366;BME280;72328;49.570;8.722;2024-02-21T09:43:24;100152.88;;;17.99;62.16
46366;BME280;72328;49.570;8.722;2024-02-21T09:47:40;100155.19;;;18.12;61.90
46366;BME280;72328;49.570;8.722;2024-02-21T09:51:44;100155.28;;;18.39;62.37
46366;BME280;72328;49.570;8.722;2024-02-21T09:55:45;100153.72;;;18.55;62.17
46366;BME280;72328;49.570;8.722;2024-02-21T09:59:47;100135.47;;;18.55;60.24
46366;BME280;72328;49.570;8.722;2024-02-21T10:03:47;100142.34;;;18.47;60.59
46366;BME280;72328;49.570;8.722;2024-02-21T10:07:51;100136.59;;;18.43;60.31
46366;BME280;72328;49.570;8.722;2024-02-21T10:11:52;100141.31;;;18.67;59.57
46366;BME280;72328;49.570;8.722;2024-02-21T10:16:03;100140.00;;;18.80;57.83
46366;BME280;72328;49.570;8.722;2024-02-21T10:20:09;100123.88;;;18.67;57.65
46366;BME280;72328;49.570;8.722;2024-02-21T10:24:11;100122.44;;;18.55;57.14
46366;BME280;72328;49.570;8.722;2024-02-21T10:28:12;100115.16;;;18.49;57.12
46366;BME280;72328;49.570;8.722;2024-02-21T10:32:13;100095.88;;;18.33;56.48
46366;BME280;72328;49.570;8.722;2024-02-21T10:36:14;100100.13;;;18.24;56.32
46366;BME280;72328;49.570;8.722;2024-02-21T10:40:15;100106.47;;;18.22;56.54
46366;BME280;72328;49.570;8.722;2024-02-21T10:44:15;100106.47;;;18.22;56.27
46366;BME280;72328;49.570;8.722;2024-02-21T10:48:17;100076.84;;;18.13;54.88
46366;BME280;72328;49.570;8.722;2024-02-21T10:56:33;100057.88;;;18.21;54.61
46366;BME280;72328;49.570;8.722;2024-02-21T11:00:37;100059.03;;;18.09;54.14
46366;BME280;72328;49.570;8.722;2024-02-21T11:04:41;100061.84;;;17.88;54.38
46366;BME280;72328;49.570;8.722;2024-02-21T11:08:42;100047.03;;;17.79;54.21
46366;BME280;72328;49.570;8.722;2024-02-21T11:12:43;100041.31;;;17.57;53.79
46366;BME280;72328;49.570;8.722;2024-02-21T11:16:44;100037.91;;;17.47;53.98
46366;BME280;72328;49.570;8.722;2024-02-21T11:20:49;100023.66;;;17.22;53.25
46366;BME280;72328;49.570;8.722;2024-02-21T11:24:51;100022.16;;;17.01;53.08
46366;BME280;72328;49.570;8.722;2024-02-21T11:29:00;100021.31;;;16.81;53.25
46366;BME280;72328;49.570;8.722;2024-02-21T11:33:02;100002.41;;;16.60;53.13
46366;BME280;72328;49.570;8.722;2024-02-21T11:37:03;99980.78;;;16.50;53.44
46366;BME280;72328;49.570;8.722;2024-02-21T11:41:13;99993.41;;;16.34;53.34
46366;BME280;72328;49.570;8.722;2024-02-21T11:45:15;99983.13;;;16.23;53.05
46366;BME280;72328;49.570;8.722;2024-02-21T11:49:16;99979.81;;;16.21;52.97
46366;BME280;72328;49.570;8.722;2024-02-21T11:53:16;99960.53;;;16.14;53.03
46366;BME280;72328;49.570;8.722;2024-02-21T11:57:18;99945.06;;;16.03;52.96
46366;BME280;72328;49.570;8.722;2024-02-21T12:01:19;99942.84;;;15.99;52.97
46366;BME280;72328;49.570;8.722;2024-02-21T12:05:20;99935.19;;;15.97;52.93
46366;BME280;72328;49.570;8.722;2024-02-21T12:09:22;99928.22;;;15.98;52.70
46366;BME280;72328;49.570;8.722;2024-02-21T12:13:23;99940.13;;;16.00;52.86
46366;BME280;72328;49.570;8.722;2024-02-21T12:17:24;99915.78;;;16.01;52.92
46366;BME280;72328;49.570;8.722;2024-02-21T12:21:35;99919.63;;;15.97;52.67
46366;BME280;72328;49.570;8.722;2024-02-21T12:25:38;99908.41;;;15.97;52.68
46366;BME280;72328;49.570;8.722;2024-02-21T12:29:40;99887.88;;;15.94;52.76
46366;BME280;72328;49.570;8.722;2024-02-21T12:33:40;99878.84;;;15.88;52.55
46366;BME280;72328;49.570;8.722;2024-02-21T12:37:41;99869.31;;;15.89;52.77
46366;BME280;72328;49.570;8.722;2024-02-21T12:41:42;99863.94;;;15.90;52.77
46366;BME280;72328;49.570;8.722;2024-02-21T12:45:44;99859.47;;;16.02;52.51
46366;BME280;72328;49.570;8.722;2024-02-21T12:49:45;99850.16;;;15.99;52.57
46366;BME280;72328;49.570;8.722;2024-02-21T12:53:50;99839.91;;;15.98;52.34
46366;BME280;72328;49.570;8.722;2024-02-21T12:57:51;99838.16;;;15.98;52.27
46366;BME280;72328;49.570;8.722;2024-02-21T13:01:51;99823.91;;;15.93;52.25
46366;BME280;72328;49.570;8.722;2024-02-21T13:05:52;99818.03;;;15.91;52.26
46366;BME280;72328;49.570;8.722;2024-02-21T13:09:53;99799.44;;;15.86;51.93
46366;BME280;72328;49.570;8.722;2024-02-21T13:13:54;99806.16;;;15.88;51.93
46366;BME280;72328;49.570;8.722;2024-02-21T13:17:58;99801.91;;;15.87;52.23
46366;BME280;72328;49.570;8.722;2024-02-21T13:21:59;99787.72;;;15.91;52.06
46366;BME280;72328;49.570;8.722;2024-02-21T13:26:00;99776.91;;;15.96;52.26
46366;BME280;72328;49.570;8.722;2024-02-21T13:30:02;99767.31;;;15.96;51.99
46366;BME280;72328;49.570;8.722;2024-02-21T13:34:07;99765.97;;;16.02;51.89
46366;BME280;72328;49.570;8.722;2024-02-21T13:38:09;99742.06;;;15.98;51.80
46366;BME280;72328;49.570;8.722;2024-02-21T13:47:09;99731.66;;;15.98;51.86
46366;BME280;72328;49.570;8.722;2024-02-21T13:51:11;99720.19;;;16.01;51.58
46366;BME280;72328;49.570;8.722;2024-02-21T13:55:12;99734.41;;;15.97;51.55
46366;BME280;72328;49.570;8.722;2024-02-21T13:59:13;99719.78;;;15.86;51.55
46366;BME280;72328;49.570;8.722;2024-02-21T14:03:16;99687.38;;;15.81;51.78
46366;BME280;72328;49.570;8.722;2024-02-21T14:07:19;99684.78;;;15.90;51.72
46366;BME280;72328;49.570;8.722;2024-02-21T14:11:20;99684.91;;;15.98;51.78
46366;BME280;72328;49.570;8.722;2024-02-21T14:15:20;99675.50;;;15.97;51.59
46366;BME280;72328;49.570;8.722;2024-02-21T14:19:21;99663.34;;;15.88;51.52
46366;BME280;72328;49.570;8.722;2024-02-21T14:23:22;99641.88;;;15.86;51.63
46366;BME280;72328;49.570;8.722;2024-02-21T14:27:22;99635.72;;;15.87;51.41
46366;BME280;72328;49.570;8.722;2024-02-21T14:31:23;99622.63;;;15.89;51.47
46366;BME280;72328;49.570;8.722;2024-02-21T14:35:25;99619.44;;;15.85;51.53
46366;BME280;72328;49.570;8.722;2024-02-21T14:39:26;99604.97;;;15.83;51.26
46366;BME280;72328;49.570;8.722;2024-02-21T14:43:26;99604.16;;;15.82;51.36
46366;BME280;72328;49.570;8.722;2024-02-21T14:47:32;99587.75;;;15.82;51.47
46366;BME280;72328;49.570;8.722;2024-02-21T14:51:33;99582.97;;;15.87;51.61
46366;BME280;72328;49.570;8.722;2024-02-21T14:55:34;99578.31;;;15.90;51.47
46366;BME280;72328;49.570;8.722;2024-02-21T14:59:35;99571.63;;;15.97;51.00
46366;BME280;72328;49.570;8.722;2024-02-21T15:03:36;99562.03;;;15.98;51.31
46366;BME280;72328;49.570;8.722;2024-02-21T15:07:37;99564.22;;;16.02;51.10
46366;BME280;72328;49.570;8.722;2024-02-21T15:11:37;99557.38;;;16.01;51.16
46366;BME280;72328;49.570;8.722;2024-02-21T15:15:38;99563.66;;;15.99;51.11
46366;BME280;72328;49.570;8.722;2024-02-21T15:19:39;99554.38;;;15.96;50.75
46366;BME280;72328;49.570;8.722;2024-02-21T15:23:43;99543.19;;;15.96;50.80
46366;BME280;72328;49.570;8.722;2024-02-21T15:27:44;99537.47;;;15.92;50.53
46366;BME280;72328;49.570;8.722;2024-02-21T15:31:45;99512.88;;;15.87;50.12
46366;BME280;72328;49.570;8.722;2024-02-21T15:35:46;99509.78;;;15.74;49.99
46366;BME280;72328;49.570;8.722;2024-02-21T15:39:49;99504.31;;;15.67;50.35
46366;BME280;72328;49.570;8.722;2024-02-21T15:43:50;99494.06;;;15.66;49.93
46366;BME280;72328;49.570;8.722;2024-02-21T15:48:10;99494.50;;;15.61;49.80
46366;BME280;72328;49.570;8.722;2024-02-21T15:52:13;99485.09;;;15.51;49.73
46366;BME280;72328;49.570;8.722;2024-02-21T15:56:14;99483.34;;;15.42;50.22
46366;BME280;72328;49.570;8.722;2024-02-21T16:00:15;99469.13;;;15.46;49.88
46366;BME280;72328;49.570;8.722;2024-02-21T16:04:16;99467.63;;;15.43;49.81
46366;BME280;72328;49.570;8.722;2024-02-21T16:08:17;99477.31;;;15.51;49.82
46366;BME280;72328;49.570;8.722;2024-02-21T16:12:19;99460.09;;;15.50;49.80
46366;BME280;72328;49.570;8.722;2024-02-21T16:16:19;99457.13;;;15.45;49.89
46366;BME280;72328;49.570;8.722;2024-02-21T16:20:20;99458.34;;;15.50;49.65
46366;BME280;72328;49.570;8.722;2024-02-21T16:24:21;99449.47;;;15.53;49.64
46366;BME280;72328;49.570;8.722;2024-02-21T16:28:21;99426.25;;;15.51;49.60
46366;BME280;72328;49.570;8.722;2024-02-21T16:32:22;99428.00;;;15.51;49.10
46366;BME280;72328;49.570;8.722;2024-02-21T16:36:24;99421.88;;;15.42;49.56
46366;BME280;72328;49.570;8.722;2024-02-21T16:40:24;99424.78;;;15.39;49.51
46366;BME280;72328;49.570;8.722;2024-02-21T16:44:26;99411.66;;;15.31;49.51
46366;BME280;72328;49.570;8.722;2024-02-21T16:48:26;99398.97;;;15.28;49.73
46366;BME280;72328;49.570;8.722;2024-02-21T16:52:27;99393.91;;;15.27;49.48
46366;BME280;72328;49.570;8.722;2024-02-21T16:56:28;99382.31;;;15.21;49.64
46366;BME280;72328;49.570;8.722;2024-02-21T17:00:30;99389.31;;;15.21;49.52
46366;BME280;72328;49.570;8.722;2024-02-21T17:04:30;99357.22;;;15.22;49.64
46366;BME280;72328;49.570;8.722;2024-02-21T17:08:31;99366.88;;;15.29;49.41
46366;BME280;72328;49.570;8.722;2024-02-21T17:12:32;99371.09;;;15.30;49.19
46366;BME280;72328;49.570;8.722;2024-02-21T17:16:36;99354.88;;;15.28;49.32
46366;BME280;72328;49.570;8.722;2024-02-21T17:20:37;99362.66;;;15.28;49.44
46366;BME280;72328;49.570;8.722;2024-02-21T17:24:39;99339.59;;;15.25;49.48
46366;BME280;72328;49.570;8.722;2024-02-21T17:28:40;99339.59;;;15.25;49.39
46366;BME280;72328;49.570;8.722;2024-02-21T17:32:40;99329.22;;;15.25;49.56
46366;BME280;72328;49.570;8.722;2024-02-21T17:36:41;99334.13;;;15.28;49.14
46366;BME280;72328;49.570;8.722;2024-02-21T17:40:42;99332.47;;;15.27;49.45
46366;BME280;72328;49.570;8.722;2024-02-21T17:44:43;99321.56;;;15.24;49.23
46366;BME280;72328;49.570;8.722;2024-02-21T17:48:45;99326.22;;;15.20;49.19
46366;BME280;72328;49.570;8.722;2024-02-21T17:52:47;99345.63;;;15.16;49.36
46366;BME280;72328;49.570;8.722;2024-02-21T17:56:47;99329.25;;;15.06;49.51
46366;BME280;72328;49.570;8.722;2024-02-21T18:00:51;99314.41;;;14.99;49.37
46366;BME280;72328;49.570;8.722;2024-02-21T18:04:54;99313.88;;;14.95;49.68
46366;BME280;72328;49.570;8.722;2024-02-21T18:08:55;99292.47;;;14.93;49.71
46366;BME280;72328;49.570;8.722;2024-02-21T18:13:01;99296.56;;;14.96;49.40
46366;BME280;72328;49.570;8.722;2024-02-21T18:17:05;99278.84;;;14.91;49.52
46366;BME280;72328;49.570;8.722;2024-02-21T18:21:05;99288.38;;;14.91;49.38
46366;BME280;72328;49.570;8.722;2024-02-21T18:25:08;99275.03;;;14.86;49.39
46366;BME280;72328;49.570;8.722;2024-02-21T18:29:09;99268.22;;;14.85;49.56
46366;BME280;72328;49.570;8.722;2024-02-21T18:33:10;99249.25;;;14.84;49.52
46366;BME280;72328;49.570;8.722;2024-02-21T18:37:11;99232.19;;;14.82;49.55
46366;BME280;72328;49.570;8.722;2024-02-21T18:41:11;99251.44;;;14.79;49.29
46366;BME280;72328;49.570;8.722;2024-02-21T18:45:12;99242.59;;;14.72;49.50
46366;BME280;72328;49.570;8.722;2024-02-21T18:49:15;99245.47;;;14.79;49.58
46366;BME280;72328;49.570;8.722;2024-02-21T18:53:16;99233.16;;;14.81;49.71
46366;BME280;72328;49.570;8.722;2024-02-21T18:57:17;99224.03;;;14.86;49.71
46366;BME280;72328;49.570;8.722;2024-02-21T19:01:18;99222.09;;;14.88;49.75
46366;BME280;72328;49.570;8.722;2024-02-21T19:05:20;99220.72;;;14.94;49.51
46366;BME280;72328;49.570;8.722;2024-02-21T19:09:22;99212.63;;;14.97;49.50
46366;BME280;72328;49.570;8.722;2024-02-21T19:13:23;99219.84;;;15.03;49.42
46366;BME280;72328;49.570;8.722;2024-02-21T19:17:24;99210.97;;;15.05;49.72
46366;BME280;72328;49.570;8.722;2024-02-21T19:21:25;99209.59;;;15.11;49.46
46366;BME280;72328;49.570;8.722;2024-02-21T19:25:25;99203.94;;;15.15;49.46
46366;BME280;72328;49.570;8.722;2024-02-21T19:29:26;99203.50;;;15.20;49.54
46366;BME280;72328;49.570;8.722;2024-02-21T19:33:27;99214.25;;;15.25;49.54
46366;BME280;72328;49.570;8.722;2024-02-21T19:37:27;99187.53;;;15.24;49.37
46366;BME280;72328;49.570;8.722;2024-02-21T19:41:28;99175.53;;;15.23;49.73
46366;BME280;72328;49.570;8.722;2024-02-21T19:45:30;99172.25;;;15.21;48.89
46366;BME280;72328;49.570;8.722;2024-02-21T19:49:34;99163.13;;;15.17;48.99
46366;BME280;72328;49.570;8.722;2024-02-21T19:53:35;99150.53;;;15.22;49.29
46366;BME280;72328;49.570;8.722;2024-02-21T19:57:35;99149.00;;;15.29;49.06
46366;BME280;72328;49.570;8.722;2024-02-21T20:01:36;99153.88;;;15.32;49.04
46366;BME280;72328;49.570;8.722;2024-02-21T20:05:37;99137.53;;;15.32;49.38
46366;BME280;72328;49.570;8.722;2024-02-21T20:09:41;99150.22;;;15.35;49.21
46366;BME280;72328;49.570;8.722;2024-02-21T20:13:41;99127.69;;;15.35;49.27
46366;BME280;72328;49.570;8.722;2024-02-21T20:17:42;99113.63;;;15.38;48.93
46366;BME280;72328;49.570;8.722;2024-02-21T20:21:46;99099.81;;;15.37;48.81
46366;BME280;72328;49.570;8.722;2024-02-21T20:25:52;99075.38;;;15.40;48.94
46366;BME280;72328;49.570;8.722;2024-02-21T20:29:53;99057.66;;;15.35;48.88
46366;BME280;72328;49.570;8.722;2024-02-21T20:33:53;99059.78;;;15.40;48.88
46366;BME280;72328;49.570;8.722;2024-02-21T20:37:54;99070.84;;;15.42;49.01
46366;BME280;72328;49.570;8.722;2024-02-21T20:41:55;99069.75;;;15.44;48.91
46366;BME280;72328;49.570;8.722;2024-02-21T20:45:57;99058.25;;;15.47;48.99
46366;BME280;72328;49.570;8.722;2024-02-21T20:49:57;99046.22;;;15.46;48.69
46366;BME280;72328;49.570;8.722;2024-02-21T20:53:59;99051.94;;;15.49;49.04
46366;BME280;72328;49.570;8.722;2024-02-21T20:57:59;99056.81;;;15.52;48.78
46366;BME280;72328;49.570;8.722;2024-02-21T21:02:00;99038.38;;;15.55;48.89
46366;BME280;72328;49.570;8.722;2024-02-21T21:06:01;99017.75;;;15.54;48.65
46366;BME280;72328;49.570;8.722;2024-02-21T21:10:01;99029.91;;;15.53;48.84
46366;BME280;72328;49.570;8.722;2024-02-21T21:14:04;99029.25;;;15.51;48.65
46366;BME280;72328;49.570;8.722;2024-02-21T21:18:05;99030.84;;;15.44;48.93